sensor_id;sensor_type;location;lat;lon;timestamp;P1;durP1;ratioP1;P2;durP2;ratioP2
67816;SDS011;54614;47.576;7.524;2024-01-15T00:02:06;7.27;;;4.73;;
67816;SDS011;54614;47.576;7.524;2024-01-15T00:04:36;5.53;;;4.27;;
67816;SDS011;54614;47.576;7.524;2024-01-15T00:07:03;5.43;;;4.23;;
67816;SDS011;54614;47.576;7.524;2024-01-15T00:09:30;5.37;;;4.60;;
67816;SDS011;54614;47.576;7.524;2024-01-15T00:11:56;7.17;;;4.60;;
67816;SDS011;54614;47.576;7.524;2024-01-15T00:14:22;4.70;;;4.10;;
67816;SDS011;54614;47.576;7.524;2024-01-15T00:16:48;5.87;;;4.30;;
67816;SDS011;54614;47.576;7.524;2024-01-15T00:19:16;6.67;;;4.27;;
67816;SDS011;54614;47.576;7.524;2024-01-15T00:21:42;6.00;;;4.40;;
67816;SDS011;54614;47.576;7.524;2024-01-15T00:24:09;5.97;;;4.40;;
67816;SDS011;54614;47.576;7.524;2024-01-15T00:26:35;5.47;;;4.43;;
67816;SDS011;54614;47.576;7.524;2024-01-15T00:29:00;6.13;;;4.37;;
67816;SDS011;54614;47.576;7.524;2024-01-15T00:31:28;6.17;;;4.23;;
67816;SDS011;54614;47.576;7.524;2024-01-15T00:33:55;5.57;;;4.20;;
67816;SDS011;54614;47.576;7.524;2024-01-15T00:36:22;5.40;;;4.40;;
67816;SDS011;54614;47.576;7.524;2024-01-15T00:38:48;5.50;;;4.30;;
67816;SDS011;54614;47.576;7.524;2024-01-15T00:41:14;5.63;;;4.60;;
67816;SDS011;54614;47.576;7.524;2024-01-15T00:43:40;5.63;;;4.30;;
67816;SDS011;54614;47.576;7.524;2024-01-15T00:46:06;5.60;;;3.90;;
67816;SDS011;54614;47.576;7.524;2024-01-15T00:48:33;5.40;;;4.20;;
67816;SDS011;54614;47.576;7.524;2024-01-15T00:50:58;5.20;;;4.10;;
67816;SDS011;54614;47.576;7.524;2024-01-15T00:53:25;6.13;;;4.43;;
67816;SDS011;54614;47.576;7.524;2024-01-15T00:55:51;5.30;;;4.07;;
67816;SDS011;54614;47.576;7.524;2024-01-15T00:58:17;4.90;;;4.03;;
67816;SDS011;54614;47.576;7.524;2024-01-15T01:00:44;5.83;;;4.30;;
67816;SDS011;54614;47.576;7.524;2024-01-15T01:03:09;4.87;;;3.87;;
67816;SDS011;54614;47.576;7.524;2024-01-15T01:05:35;5.33;;;3.97;;
67816;SDS011;54614;47.576;7.524;2024-01-15T01:08:01;5.90;;;4.27;;
67816;SDS011;54614;47.576;7.524;2024-01-15T01:10:27;5.17;;;4.00;;
67816;SDS011;54614;47.576;7.524;2024-01-15T01:12:53;4.97;;;3.93;;
67816;SDS011;54614;47.576;7.524;2024-01-15T01:15:19;5.73;;;4.10;;
67816;SDS011;54614;47.576;7.524;2024-01-15T01:17:45;4.90;;;4.07;;
67816;SDS011;54614;47.576;7.524;2024-01-15T01:20:11;5.63;;;4.47;;
67816;SDS011;54614;47.576;7.524;2024-01-15T01:22:37;5.23;;;4.03;;
67816;SDS011;54614;47.576;7.524;2024-01-15T01:25:04;4.93;;;3.93;;
67816;SDS011;54614;47.576;7.524;2024-01-15T01:27:30;6.30;;;4.07;;
67816;SDS011;54614;47.576;7.524;2024-01-15T01:29:56;5.90;;;3.73;;
67816;SDS011;54614;47.576;7.524;2024-01-15T01:32:21;4.87;;;4.03;;
67816;SDS011;54614;47.576;7.524;2024-01-15T01:34:47;5.73;;;4.10;;
67816;SDS011;54614;47.576;7.524;2024-01-15T01:37:13;5.10;;;4.10;;
67816;SDS011;54614;47.576;7.524;2024-01-15T01:39:40;5.63;;;4.30;;
67816;SDS011;54614;47.576;7.524;2024-01-15T01:42:07;5.67;;;4.03;;
67816;SDS011;54614;47.576;7.524;2024-01-15T01:44:33;5.00;;;4.00;;
67816;SDS011;54614;47.576;7.524;2024-01-15T01:46:59;5.63;;;4.30;;
67816;SDS011;54614;47.576;7.524;2024-01-15T01:49:26;7.03;;;4.20;;
67816;SDS011;54614;47.576;7.524;2024-01-15T01:51:54;6.07;;;4.07;;
67816;SDS011;54614;47.576;7.524;2024-01-15T01:54:28;5.97;;;4.17;;
67816;SDS011;54614;47.576;7.524;2024-01-15T01:56:57;5.97;;;4.60;;
67816;SDS011;54614;47.576;7.524;2024-01-15T01:59:25;6.93;;;4.50;;
67816;SDS011;54614;47.576;7.524;2024-01-15T02:01:53;6.80;;;4.30;;
67816;SDS011;54614;47.576;7.524;2024-01-15T02:04:20;6.03;;;4.17;;
67816;SDS011;54614;47.576;7.524;2024-01-15T02:06:50;5.67;;;4.07;;
67816;SDS011;54614;47.576;7.524;2024-01-15T02:09:16;5.87;;;4.53;;
67816;SDS011;54614;47.576;7.524;2024-01-15T02:11:43;5.07;;;4.00;;
67816;SDS011;54614;47.576;7.524;2024-01-15T02:14:12;6.53;;;4.00;;
67816;SDS011;54614;47.576;7.524;2024-01-15T02:16:38;5.07;;;3.87;;
67816;SDS011;54614;47.576;7.524;2024-01-15T02:19:04;5.17;;;3.73;;
67816;SDS011;54614;47.576;7.524;2024-01-15T02:21:31;6.60;;;4.23;;
67816;SDS011;54614;47.576;7.524;2024-01-15T02:23:57;6.57;;;4.47;;
67816;SDS011;54614;47.576;7.524;2024-01-15T02:26:24;4.90;;;4.10;;
67816;SDS011;54614;47.576;7.524;2024-01-15T02:28:50;7.80;;;4.20;;
67816;SDS011;54614;47.576;7.524;2024-01-15T02:31:16;5.40;;;3.93;;
67816;SDS011;54614;47.576;7.524;2024-01-15T02:33:43;4.80;;;3.80;;
67816;SDS011;54614;47.576;7.524;2024-01-15T02:36:11;5.47;;;4.20;;
67816;SDS011;54614;47.576;7.524;2024-01-15T02:38:37;5.00;;;3.73;;
67816;SDS011;54614;47.576;7.524;2024-01-15T02:41:03;5.03;;;3.83;;
67816;SDS011;54614;47.576;7.524;2024-01-15T02:43:29;5.90;;;3.83;;
67816;SDS011;54614;47.576;7.524;2024-01-15T02:45:55;5.63;;;3.90;;
67816;SDS011;54614;47.576;7.524;2024-01-15T02:48:20;5.77;;;4.10;;
67816;SDS011;54614;47.576;7.524;2024-01-15T02:50:46;5.63;;;3.93;;
67816;SDS011;54614;47.576;7.524;2024-01-15T02:53:12;4.90;;;3.90;;
67816;SDS011;54614;47.576;7.524;2024-01-15T02:55:38;6.33;;;4.03;;
67816;SDS011;54614;47.576;7.524;2024-01-15T02:58:04;5.33;;;3.90;;
67816;SDS011;54614;47.576;7.524;2024-01-15T03:00:29;5.63;;;3.80;;
67816;SDS011;54614;47.576;7.524;2024-01-15T03:02:56;5.53;;;3.97;;
67816;SDS011;54614;47.576;7.524;2024-01-15T03:05:22;4.63;;;4.00;;
67816;SDS011;54614;47.576;7.524;2024-01-15T03:07:47;6.57;;;3.90;;
67816;SDS011;54614;47.576;7.524;2024-01-15T03:10:13;6.53;;;4.17;;
67816;SDS011;54614;47.576;7.524;2024-01-15T03:12:39;5.67;;;4.03;;
67816;SDS011;54614;47.576;7.524;2024-01-15T03:15:05;5.43;;;4.20;;
67816;SDS011;54614;47.576;7.524;2024-01-15T03:17:31;5.30;;;4.03;;
67816;SDS011;54614;47.576;7.524;2024-01-15T03:19:57;5.07;;;4.10;;
67816;SDS011;54614;47.576;7.524;2024-01-15T03:22:23;5.33;;;3.87;;
67816;SDS011;54614;47.576;7.524;2024-01-15T03:24:48;5.10;;;3.90;;
67816;SDS011;54614;47.576;7.524;2024-01-15T03:27:14;5.80;;;3.93;;
67816;SDS011;54614;47.576;7.524;2024-01-15T03:29:40;4.47;;;3.43;;
67816;SDS011;54614;47.576;7.524;2024-01-15T03:32:06;4.70;;;3.70;;
67816;SDS011;54614;47.576;7.524;2024-01-15T03:34:32;4.80;;;3.70;;
67816;SDS011;54614;47.576;7.524;2024-01-15T03:36:58;5.40;;;4.13;;
67816;SDS011;54614;47.576;7.524;2024-01-15T03:39:24;4.50;;;3.43;;
67816;SDS011;54614;47.576;7.524;2024-01-15T03:41:50;4.40;;;3.70;;
67816;SDS011;54614;47.576;7.524;2024-01-15T03:44:16;4.30;;;3.60;;
67816;SDS011;54614;47.576;7.524;2024-01-15T03:46:42;5.60;;;3.80;;
67816;SDS011;54614;47.576;7.524;2024-01-15T03:49:07;5.47;;;3.90;;
67816;SDS011;54614;47.576;7.524;2024-01-15T03:51:33;5.00;;;3.83;;
67816;SDS011;54614;47.576;7.524;2024-01-15T03:53:59;4.30;;;3.67;;
67816;SDS011;54614;47.576;7.524;2024-01-15T03:56:25;5.10;;;3.83;;
67816;SDS011;54614;47.576;7.524;2024-01-15T03:58:50;4.70;;;3.57;;
67816;SDS011;54614;47.576;7.524;2024-01-15T04:01:16;4.60;;;3.80;;
67816;SDS011;54614;47.576;7.524;2024-01-15T04:03:42;5.00;;;3.70;;
67816;SDS011;54614;47.576;7.524;2024-01-15T04:06:08;5.30;;;3.67;;
67816;SDS011;54614;47.576;7.524;2024-01-15T04:08:33;4.53;;;3.67;;
67816;SDS011;54614;47.576;7.524;2024-01-15T04:10:59;4.37;;;3.60;;
67816;SDS011;54614;47.576;7.524;2024-01-15T04:13:26;5.20;;;3.70;;
67816;SDS011;54614;47.576;7.524;2024-01-15T04:15:52;5.00;;;3.83;;
67816;SDS011;54614;47.576;7.524;2024-01-15T04:18:18;5.03;;;3.80;;
67816;SDS011;54614;47.576;7.524;2024-01-15T04:20:44;5.90;;;3.43;;
67816;SDS011;54614;47.576;7.524;2024-01-15T04:23:10;5.37;;;3.80;;
67816;SDS011;54614;47.576;7.524;2024-01-15T04:25:35;5.47;;;3.97;;
67816;SDS011;54614;47.576;7.524;2024-01-15T04:28:01;5.20;;;3.73;;
67816;SDS011;54614;47.576;7.524;2024-01-15T04:30:27;4.33;;;3.47;;
67816;SDS011;54614;47.576;7.524;2024-01-15T04:32:53;4.27;;;3.50;;
67816;SDS011;54614;47.576;7.524;2024-01-15T04:35:18;4.27;;;3.47;;
67816;SDS011;54614;47.576;7.524;2024-01-15T04:37:44;5.20;;;3.83;;
67816;SDS011;54614;47.576;7.524;2024-01-15T04:40:10;7.03;;;3.73;;
67816;SDS011;54614;47.576;7.524;2024-01-15T04:42:36;5.03;;;3.40;;
67816;SDS011;54614;47.576;7.524;2024-01-15T04:45:02;4.47;;;3.70;;
67816;SDS011;54614;47.576;7.524;2024-01-15T04:47:29;5.67;;;3.50;;
67816;SDS011;54614;47.576;7.524;2024-01-15T04:49:54;4.50;;;3.53;;
67816;SDS011;54614;47.576;7.524;2024-01-15T04:52:20;6.20;;;3.67;;
67816;SDS011;54614;47.576;7.524;2024-01-15T04:54:46;5.20;;;3.90;;
67816;SDS011;54614;47.576;7.524;2024-01-15T04:57:12;5.63;;;4.00;;
67816;SDS011;54614;47.576;7.524;2024-01-15T04:59:38;4.57;;;3.50;;
67816;SDS011;54614;47.576;7.524;2024-01-15T05:02:04;4.43;;;3.40;;
67816;SDS011;54614;47.576;7.524;2024-01-15T05:04:30;4.07;;;3.47;;
67816;SDS011;54614;47.576;7.524;2024-01-15T05:06:56;4.97;;;3.63;;
67816;SDS011;54614;47.576;7.524;2024-01-15T05:09:21;5.37;;;3.60;;
67816;SDS011;54614;47.576;7.524;2024-01-15T05:11:47;5.77;;;4.00;;
67816;SDS011;54614;47.576;7.524;2024-01-15T05:14:13;4.33;;;3.43;;
67816;SDS011;54614;47.576;7.524;2024-01-15T05:16:39;10.30;;;3.70;;
67816;SDS011;54614;47.576;7.524;2024-01-15T05:19:11;5.10;;;3.53;;
67816;SDS011;54614;47.576;7.524;2024-01-15T05:21:37;6.93;;;3.80;;
67816;SDS011;54614;47.576;7.524;2024-01-15T05:24:03;5.00;;;3.47;;
67816;SDS011;54614;47.576;7.524;2024-01-15T05:26:29;6.67;;;3.80;;
67816;SDS011;54614;47.576;7.524;2024-01-15T05:28:54;5.40;;;3.47;;
67816;SDS011;54614;47.576;7.524;2024-01-15T05:31:20;4.13;;;3.50;;
67816;SDS011;54614;47.576;7.524;2024-01-15T05:33:46;3.53;;;3.00;;
67816;SDS011;54614;47.576;7.524;2024-01-15T05:36:11;4.97;;;3.60;;
67816;SDS011;54614;47.576;7.524;2024-01-15T05:38:37;4.70;;;3.23;;
67816;SDS011;54614;47.576;7.524;2024-01-15T05:41:04;5.53;;;3.57;;
67816;SDS011;54614;47.576;7.524;2024-01-15T05:43:31;4.77;;;3.60;;
67816;SDS011;54614;47.576;7.524;2024-01-15T05:45:56;4.40;;;3.40;;
67816;SDS011;54614;47.576;7.524;2024-01-15T05:48:23;6.63;;;3.73;;
67816;SDS011;54614;47.576;7.524;2024-01-15T05:50:49;4.33;;;3.30;;
67816;SDS011;54614;47.576;7.524;2024-01-15T05:53:14;5.20;;;3.43;;
67816;SDS011;54614;47.576;7.524;2024-01-15T05:55:40;5.93;;;3.80;;
67816;SDS011;54614;47.576;7.524;2024-01-15T05:58:06;4.17;;;3.53;;
67816;SDS011;54614;47.576;7.524;2024-01-15T06:00:32;5.00;;;3.53;;
67816;SDS011;54614;47.576;7.524;2024-01-15T06:03:00;4.60;;;3.40;;
67816;SDS011;54614;47.576;7.524;2024-01-15T06:05:26;4.80;;;3.20;;
67816;SDS011;54614;47.576;7.524;2024-01-15T06:07:52;4.03;;;3.17;;
67816;SDS011;54614;47.576;7.524;2024-01-15T06:10:17;6.93;;;3.00;;
67816;SDS011;54614;47.576;7.524;2024-01-15T06:12:43;8.23;;;3.40;;
67816;SDS011;54614;47.576;7.524;2024-01-15T06:15:09;4.20;;;3.23;;
67816;SDS011;54614;47.576;7.524;2024-01-15T06:17:35;6.23;;;3.07;;
67816;SDS011;54614;47.576;7.524;2024-01-15T06:20:02;4.17;;;2.90;;
67816;SDS011;54614;47.576;7.524;2024-01-15T06:22:29;3.50;;;3.00;;
67816;SDS011;54614;47.576;7.524;2024-01-15T06:24:55;10.93;;;3.70;;
67816;SDS011;54614;47.576;7.524;2024-01-15T06:27:21;9.50;;;3.90;;
67816;SDS011;54614;47.576;7.524;2024-01-15T06:29:47;6.13;;;3.20;;
67816;SDS011;54614;47.576;7.524;2024-01-15T06:32:13;6.97;;;3.10;;
67816;SDS011;54614;47.576;7.524;2024-01-15T06:34:39;9.00;;;3.13;;
67816;SDS011;54614;47.576;7.524;2024-01-15T06:37:04;8.70;;;3.07;;
67816;SDS011;54614;47.576;7.524;2024-01-15T06:39:30;7.27;;;3.23;;
67816;SDS011;54614;47.576;7.524;2024-01-15T06:41:56;6.57;;;3.17;;
67816;SDS011;54614;47.576;7.524;2024-01-15T06:44:22;8.17;;;3.23;;
67816;SDS011;54614;47.576;7.524;2024-01-15T06:46:48;8.57;;;3.67;;
67816;SDS011;54614;47.576;7.524;2024-01-15T06:49:14;10.47;;;3.57;;
67816;SDS011;54614;47.576;7.524;2024-01-15T06:51:40;13.17;;;3.33;;
67816;SDS011;54614;47.576;7.524;2024-01-15T06:54:06;6.07;;;3.30;;
67816;SDS011;54614;47.576;7.524;2024-01-15T06:56:32;7.53;;;3.50;;
67816;SDS011;54614;47.576;7.524;2024-01-15T06:58:58;7.90;;;3.30;;
67816;SDS011;54614;47.576;7.524;2024-01-15T07:01:24;10.50;;;3.93;;
67816;SDS011;54614;47.576;7.524;2024-01-15T07:03:50;7.10;;;3.20;;
67816;SDS011;54614;47.576;7.524;2024-01-15T07:06:15;4.67;;;3.40;;
67816;SDS011;54614;47.576;7.524;2024-01-15T07:08:42;7.07;;;3.40;;
67816;SDS011;54614;47.576;7.524;2024-01-15T07:11:08;6.10;;;3.50;;
67816;SDS011;54614;47.576;7.524;2024-01-15T07:13:34;7.97;;;3.47;;
67816;SDS011;54614;47.576;7.524;2024-01-15T07:16:02;9.87;;;3.93;;
67816;SDS011;54614;47.576;7.524;2024-01-15T07:18:28;8.67;;;4.20;;
67816;SDS011;54614;47.576;7.524;2024-01-15T07:20:54;10.47;;;4.37;;
67816;SDS011;54614;47.576;7.524;2024-01-15T07:23:20;11.47;;;4.57;;
67816;SDS011;54614;47.576;7.524;2024-01-15T07:25:45;11.10;;;4.57;;
67816;SDS011;54614;47.576;7.524;2024-01-15T07:28:11;11.50;;;4.60;;
67816;SDS011;54614;47.576;7.524;2024-01-15T07:30:37;11.53;;;4.83;;
67816;SDS011;54614;47.576;7.524;2024-01-15T07:33:04;10.50;;;4.40;;
67816;SDS011;54614;47.576;7.524;2024-01-15T07:35:30;10.13;;;4.90;;
67816;SDS011;54614;47.576;7.524;2024-01-15T07:37:57;12.53;;;4.20;;
67816;SDS011;54614;47.576;7.524;2024-01-15T07:40:22;11.63;;;4.37;;
67816;SDS011;54614;47.576;7.524;2024-01-15T07:42:49;7.47;;;4.30;;
67816;SDS011;54614;47.576;7.524;2024-01-15T07:45:16;9.03;;;4.03;;
67816;SDS011;54614;47.576;7.524;2024-01-15T07:47:42;7.57;;;3.93;;
67816;SDS011;54614;47.576;7.524;2024-01-15T07:50:09;7.63;;;4.00;;
67816;SDS011;54614;47.576;7.524;2024-01-15T07:52:35;11.67;;;4.07;;
67816;SDS011;54614;47.576;7.524;2024-01-15T07:55:01;8.30;;;4.13;;
67816;SDS011;54614;47.576;7.524;2024-01-15T07:57:28;13.87;;;4.40;;
67816;SDS011;54614;47.576;7.524;2024-01-15T07:59:54;8.90;;;3.93;;
67816;SDS011;54614;47.576;7.524;2024-01-15T08:02:20;9.70;;;4.50;;
67816;SDS011;54614;47.576;7.524;2024-01-15T08:04:46;9.87;;;4.30;;
67816;SDS011;54614;47.576;7.524;2024-01-15T08:07:12;7.33;;;4.00;;
67816;SDS011;54614;47.576;7.524;2024-01-15T08:09:38;9.60;;;4.20;;
67816;SDS011;54614;47.576;7.524;2024-01-15T08:12:04;6.97;;;3.50;;
67816;SDS011;54614;47.576;7.524;2024-01-15T08:14:31;6.37;;;3.77;;
67816;SDS011;54614;47.576;7.524;2024-01-15T08:16:57;7.90;;;4.17;;
67816;SDS011;54614;47.576;7.524;2024-01-15T08:19:23;9.03;;;3.70;;
67816;SDS011;54614;47.576;7.524;2024-01-15T08:21:49;8.90;;;3.50;;
67816;SDS011;54614;47.576;7.524;2024-01-15T08:24:15;7.97;;;3.40;;
67816;SDS011;54614;47.576;7.524;2024-01-15T08:26:41;9.33;;;3.80;;
67816;SDS011;54614;47.576;7.524;2024-01-15T08:29:07;6.60;;;3.33;;
67816;SDS011;54614;47.576;7.524;2024-01-15T08:31:33;8.93;;;3.53;;
67816;SDS011;54614;47.576;7.524;2024-01-15T08:33:59;8.87;;;3.47;;
67816;SDS011;54614;47.576;7.524;2024-01-15T08:36:26;6.77;;;3.37;;
67816;SDS011;54614;47.576;7.524;2024-01-15T08:38:54;5.90;;;3.37;;
67816;SDS011;54614;47.576;7.524;2024-01-15T08:41:20;7.47;;;3.73;;
67816;SDS011;54614;47.576;7.524;2024-01-15T08:43:46;5.83;;;3.40;;
67816;SDS011;54614;47.576;7.524;2024-01-15T08:46:12;7.97;;;3.47;;
67816;SDS011;54614;47.576;7.524;2024-01-15T08:48:38;5.87;;;3.63;;
67816;SDS011;54614;47.576;7.524;2024-01-15T08:51:04;6.33;;;3.33;;
67816;SDS011;54614;47.576;7.524;2024-01-15T08:53:31;4.63;;;3.20;;
67816;SDS011;54614;47.576;7.524;2024-01-15T08:55:57;4.87;;;3.03;;
67816;SDS011;54614;47.576;7.524;2024-01-15T08:58:23;4.77;;;3.10;;
67816;SDS011;54614;47.576;7.524;2024-01-15T09:00:50;5.03;;;3.10;;
67816;SDS011;54614;47.576;7.524;2024-01-15T09:03:16;7.10;;;3.20;;
67816;SDS011;54614;47.576;7.524;2024-01-15T09:05:42;5.33;;;3.20;;
67816;SDS011;54614;47.576;7.524;2024-01-15T09:08:08;5.93;;;3.07;;
67816;SDS011;54614;47.576;7.524;2024-01-15T09:10:34;7.13;;;3.43;;
67816;SDS011;54614;47.576;7.524;2024-01-15T09:13:00;4.97;;;3.00;;
67816;SDS011;54614;47.576;7.524;2024-01-15T09:15:25;5.40;;;3.10;;
67816;SDS011;54614;47.576;7.524;2024-01-15T09:17:51;5.47;;;3.20;;
67816;SDS011;54614;47.576;7.524;2024-01-15T09:20:17;6.10;;;3.10;;
67816;SDS011;54614;47.576;7.524;2024-01-15T09:22:43;4.27;;;3.20;;
67816;SDS011;54614;47.576;7.524;2024-01-15T09:25:09;5.90;;;3.17;;
67816;SDS011;54614;47.576;7.524;2024-01-15T09:27:35;3.90;;;3.07;;
67816;SDS011;54614;47.576;7.524;2024-01-15T09:30:04;4.77;;;3.20;;
67816;SDS011;54614;47.576;7.524;2024-01-15T09:32:31;3.83;;;2.97;;
67816;SDS011;54614;47.576;7.524;2024-01-15T09:34:57;5.73;;;3.23;;
67816;SDS011;54614;47.576;7.524;2024-01-15T09:37:23;5.20;;;2.77;;
67816;SDS011;54614;47.576;7.524;2024-01-15T09:39:49;3.00;;;2.70;;
67816;SDS011;54614;47.576;7.524;2024-01-15T09:42:15;3.63;;;2.87;;
67816;SDS011;54614;47.576;7.524;2024-01-15T09:44:41;3.20;;;2.57;;
67816;SDS011;54614;47.576;7.524;2024-01-15T09:47:07;3.17;;;2.77;;
67816;SDS011;54614;47.576;7.524;2024-01-15T09:49:34;4.00;;;2.60;;
67816;SDS011;54614;47.576;7.524;2024-01-15T09:52:01;4.50;;;2.83;;
67816;SDS011;54614;47.576;7.524;2024-01-15T09:54:28;4.97;;;2.80;;
67816;SDS011;54614;47.576;7.524;2024-01-15T09:56:58;3.73;;;2.50;;
67816;SDS011;54614;47.576;7.524;2024-01-15T09:59:25;7.43;;;2.70;;
67816;SDS011;54614;47.576;7.524;2024-01-15T10:01:53;2.93;;;2.60;;
67816;SDS011;54614;47.576;7.524;2024-01-15T10:04:20;6.27;;;2.73;;
67816;SDS011;54614;47.576;7.524;2024-01-15T10:06:47;4.77;;;2.40;;
67816;SDS011;54614;47.576;7.524;2024-01-15T10:09:17;4.50;;;2.63;;
67816;SDS011;54614;47.576;7.524;2024-01-15T10:11:43;3.43;;;2.60;;
67816;SDS011;54614;47.576;7.524;2024-01-15T10:14:10;2.90;;;2.47;;
67816;SDS011;54614;47.576;7.524;2024-01-15T10:16:40;3.77;;;2.63;;
67816;SDS011;54614;47.576;7.524;2024-01-15T10:19:07;3.13;;;2.50;;
67816;SDS011;54614;47.576;7.524;2024-01-15T10:21:34;4.77;;;2.83;;
67816;SDS011;54614;47.576;7.524;2024-01-15T10:24:02;2.90;;;2.60;;
67816;SDS011;54614;47.576;7.524;2024-01-15T10:26:29;3.00;;;2.70;;
67816;SDS011;54614;47.576;7.524;2024-01-15T10:28:57;3.40;;;2.63;;
67816;SDS011;54614;47.576;7.524;2024-01-15T10:31:25;3.13;;;2.53;;
67816;SDS011;54614;47.576;7.524;2024-01-15T10:33:52;3.53;;;2.60;;
67816;SDS011;54614;47.576;7.524;2024-01-15T10:36:18;3.00;;;2.50;;
67816;SDS011;54614;47.576;7.524;2024-01-15T10:38:44;3.83;;;2.53;;
67816;SDS011;54614;47.576;7.524;2024-01-15T10:41:11;4.00;;;2.80;;
67816;SDS011;54614;47.576;7.524;2024-01-15T10:43:37;3.37;;;2.63;;
67816;SDS011;54614;47.576;7.524;2024-01-15T10:46:06;3.53;;;2.90;;
67816;SDS011;54614;47.576;7.524;2024-01-15T10:48:33;3.23;;;2.70;;
67816;SDS011;54614;47.576;7.524;2024-01-15T10:51:00;2.93;;;2.67;;
67816;SDS011;54614;47.576;7.524;2024-01-15T10:53:35;4.50;;;2.53;;
67816;SDS011;54614;47.576;7.524;2024-01-15T10:56:06;3.60;;;2.70;;
67816;SDS011;54614;47.576;7.524;2024-01-15T10:58:34;3.73;;;2.73;;
67816;SDS011;54614;47.576;7.524;2024-01-15T11:01:02;3.83;;;2.67;;
67816;SDS011;54614;47.576;7.524;2024-01-15T11:03:29;3.20;;;2.60;;
67816;SDS011;54614;47.576;7.524;2024-01-15T11:05:55;4.40;;;2.80;;
67816;SDS011;54614;47.576;7.524;2024-01-15T11:08:21;3.63;;;2.77;;
67816;SDS011;54614;47.576;7.524;2024-01-15T11:10:50;4.07;;;3.10;;
67816;SDS011;54614;47.576;7.524;2024-01-15T11:16:05;3.67;;;3.00;;
67816;SDS011;54614;47.576;7.524;2024-01-15T11:21:27;3.70;;;2.77;;
67816;SDS011;54614;47.576;7.524;2024-01-15T11:24:01;3.90;;;3.00;;
67816;SDS011;54614;47.576;7.524;2024-01-15T11:37:29;4.63;;;3.27;;
67816;SDS011;54614;47.576;7.524;2024-01-15T11:42:47;3.80;;;3.07;;
67816;SDS011;54614;47.576;7.524;2024-01-15T11:45:18;3.70;;;2.83;;
67816;SDS011;54614;47.576;7.524;2024-01-15T11:50:17;5.10;;;3.10;;
67816;SDS011;54614;47.576;7.524;2024-01-15T11:52:44;3.70;;;3.03;;
67816;SDS011;54614;47.576;7.524;2024-01-15T11:55:30;3.60;;;2.90;;
67816;SDS011;54614;47.576;7.524;2024-01-15T11:58:07;4.33;;;3.03;;
67816;SDS011;54614;47.576;7.524;2024-01-15T12:00:40;3.93;;;3.07;;
67816;SDS011;54614;47.576;7.524;2024-01-15T12:03:09;3.50;;;2.87;;
67816;SDS011;54614;47.576;7.524;2024-01-15T12:05:38;3.80;;;3.00;;
67816;SDS011;54614;47.576;7.524;2024-01-15T12:08:05;3.83;;;3.00;;
67816;SDS011;54614;47.576;7.524;2024-01-15T12:10:36;3.60;;;2.90;;
67816;SDS011;54614;47.576;7.524;2024-01-15T12:13:13;3.40;;;3.10;;
67816;SDS011;54614;47.576;7.524;2024-01-15T12:15:41;3.87;;;3.10;;
67816;SDS011;54614;47.576;7.524;2024-01-15T12:18:09;4.13;;;3.20;;
67816;SDS011;54614;47.576;7.524;2024-01-15T12:20:37;3.70;;;3.00;;
67816;SDS011;54614;47.576;7.524;2024-01-15T12:23:04;3.97;;;3.03;;
67816;SDS011;54614;47.576;7.524;2024-01-15T12:25:31;4.10;;;3.13;;
67816;SDS011;54614;47.576;7.524;2024-01-15T12:27:58;4.20;;;3.30;;
67816;SDS011;54614;47.576;7.524;2024-01-15T12:30:29;3.83;;;2.90;;
67816;SDS011;54614;47.576;7.524;2024-01-15T12:33:00;3.77;;;3.00;;
67816;SDS011;54614;47.576;7.524;2024-01-15T12:35:29;3.63;;;3.03;;
67816;SDS011;54614;47.576;7.524;2024-01-15T12:37:55;4.10;;;3.30;;
67816;SDS011;54614;47.576;7.524;2024-01-15T12:40:21;3.87;;;3.10;;
67816;SDS011;54614;47.576;7.524;2024-01-15T12:42:48;3.33;;;3.00;;
67816;SDS011;54614;47.576;7.524;2024-01-15T12:45:15;4.27;;;3.27;;
67816;SDS011;54614;47.576;7.524;2024-01-15T12:47:41;3.00;;;2.67;;
67816;SDS011;54614;47.576;7.524;2024-01-15T12:50:07;4.57;;;3.00;;
67816;SDS011;54614;47.576;7.524;2024-01-15T12:52:37;3.47;;;3.00;;
67816;SDS011;54614;47.576;7.524;2024-01-15T12:55:06;3.80;;;3.00;;
67816;SDS011;54614;47.576;7.524;2024-01-15T12:57:34;3.23;;;2.80;;
67816;SDS011;54614;47.576;7.524;2024-01-15T13:00:01;4.17;;;3.30;;
67816;SDS011;54614;47.576;7.524;2024-01-15T13:02:36;3.80;;;3.00;;
67816;SDS011;54614;47.576;7.524;2024-01-15T13:05:03;2.87;;;2.57;;
67816;SDS011;54614;47.576;7.524;2024-01-15T13:07:29;3.03;;;2.73;;
67816;SDS011;54614;47.576;7.524;2024-01-15T13:09:55;3.37;;;2.70;;
67816;SDS011;54614;47.576;7.524;2024-01-15T13:12:21;4.80;;;2.53;;
67816;SDS011;54614;47.576;7.524;2024-01-15T13:14:47;3.47;;;2.90;;
67816;SDS011;54614;47.576;7.524;2024-01-15T13:17:13;3.17;;;2.60;;
67816;SDS011;54614;47.576;7.524;2024-01-15T13:19:42;4.20;;;3.00;;
67816;SDS011;54614;47.576;7.524;2024-01-15T13:22:07;4.23;;;2.70;;
67816;SDS011;54614;47.576;7.524;2024-01-15T13:24:34;3.37;;;2.87;;
67816;SDS011;54614;47.576;7.524;2024-01-15T13:27:03;3.67;;;2.87;;
67816;SDS011;54614;47.576;7.524;2024-01-15T13:29:30;3.10;;;2.80;;
67816;SDS011;54614;47.576;7.524;2024-01-15T13:31:57;3.13;;;2.83;;
67816;SDS011;54614;47.576;7.524;2024-01-15T13:34:23;3.73;;;3.07;;
67816;SDS011;54614;47.576;7.524;2024-01-15T13:36:49;3.00;;;2.67;;
67816;SDS011;54614;47.576;7.524;2024-01-15T13:39:15;3.17;;;2.77;;
67816;SDS011;54614;47.576;7.524;2024-01-15T13:41:45;4.10;;;2.77;;
67816;SDS011;54614;47.576;7.524;2024-01-15T13:44:14;4.77;;;2.73;;
67816;SDS011;54614;47.576;7.524;2024-01-15T13:46:39;3.13;;;2.70;;
67816;SDS011;54614;47.576;7.524;2024-01-15T13:49:05;3.50;;;2.80;;
67816;SDS011;54614;47.576;7.524;2024-01-15T13:51:31;3.27;;;2.90;;
67816;SDS011;54614;47.576;7.524;2024-01-15T13:53:57;3.20;;;2.60;;
67816;SDS011;54614;47.576;7.524;2024-01-15T13:56:23;3.17;;;2.63;;
67816;SDS011;54614;47.576;7.524;2024-01-15T13:58:49;3.83;;;2.40;;
67816;SDS011;54614;47.576;7.524;2024-01-15T14:01:15;3.27;;;2.90;;
67816;SDS011;54614;47.576;7.524;2024-01-15T14:03:42;3.10;;;2.80;;
67816;SDS011;54614;47.576;7.524;2024-01-15T14:06:09;3.17;;;2.50;;
67816;SDS011;54614;47.576;7.524;2024-01-15T14:08:35;3.33;;;2.70;;
67816;SDS011;54614;47.576;7.524;2024-01-15T14:11:03;3.30;;;2.60;;
67816;SDS011;54614;47.576;7.524;2024-01-15T14:13:30;2.93;;;2.60;;
67816;SDS011;54614;47.576;7.524;2024-01-15T14:15:57;3.33;;;2.67;;
67816;SDS011;54614;47.576;7.524;2024-01-15T14:18:23;2.97;;;2.67;;
67816;SDS011;54614;47.576;7.524;2024-01-15T14:20:48;3.50;;;2.70;;
67816;SDS011;54614;47.576;7.524;2024-01-15T14:23:14;3.30;;;2.80;;
67816;SDS011;54614;47.576;7.524;2024-01-15T14:25:40;3.03;;;2.50;;
67816;SDS011;54614;47.576;7.524;2024-01-15T14:28:05;3.37;;;2.53;;
67816;SDS011;54614;47.576;7.524;2024-01-15T14:30:31;3.23;;;2.73;;
67816;SDS011;54614;47.576;7.524;2024-01-15T14:32:57;2.93;;;2.67;;
67816;SDS011;54614;47.576;7.524;2024-01-15T14:35:23;4.07;;;2.90;;
67816;SDS011;54614;47.576;7.524;2024-01-15T14:37:49;3.60;;;3.00;;
67816;SDS011;54614;47.576;7.524;2024-01-15T14:40:14;3.90;;;2.70;;
67816;SDS011;54614;47.576;7.524;2024-01-15T14:42:41;4.73;;;2.80;;
67816;SDS011;54614;47.576;7.524;2024-01-15T14:45:07;4.20;;;2.67;;
67816;SDS011;54614;47.576;7.524;2024-01-15T14:47:37;2.80;;;2.60;;
67816;SDS011;54614;47.576;7.524;2024-01-15T14:50:04;3.20;;;2.90;;
67816;SDS011;54614;47.576;7.524;2024-01-15T14:52:32;3.43;;;2.40;;
67816;SDS011;54614;47.576;7.524;2024-01-15T14:54:58;2.70;;;2.50;;
67816;SDS011;54614;47.576;7.524;2024-01-15T14:57:25;2.93;;;2.60;;
67816;SDS011;54614;47.576;7.524;2024-01-15T14:59:51;3.70;;;2.40;;
67816;SDS011;54614;47.576;7.524;2024-01-15T15:02:16;3.10;;;2.60;;
67816;SDS011;54614;47.576;7.524;2024-01-15T15:04:43;4.13;;;2.73;;
67816;SDS011;54614;47.576;7.524;2024-01-15T15:07:09;2.60;;;2.40;;